sensor_id;sensor_type;location;lat;lon;timestamp;pressure;altitude;pressure_sealevel;temperature;humidity
28797;BME280;24974;54.444;18.560;2023-12-28T00:01:03;101255.13;;;6.34;59.35
28797;BME280;24974;54.444;18.560;2023-12-28T00:03:34;101245.22;;;5.33;62.09
28797;BME280;24974;54.444;18.560;2023-12-28T00:06:05;101244.41;;;5.33;61.62
28797;BME280;24974;54.444;18.560;2023-12-28T00:08:36;101228.88;;;5.71;60.98
28797;BME280;24974;54.444;18.560;2023-12-28T00:11:07;101234.06;;;5.77;61.20
28797;BME280;24974;54.444;18.560;2023-12-28T00:13:38;101222.53;;;5.23;62.56
28797;BME280;24974;54.444;18.560;2023-12-28T00:16:09;101211.38;;;5.24;62.58
28797;BME280;24974;54.444;18.560;2023-12-28T00:18:40;101213.06;;;5.36;61.88
28797;BME280;24974;54.444;18.560;2023-12-28T00:21:11;101215.75;;;5.68;61.41
28797;BME280;24974;54.444;18.560;2023-12-28T00:23:42;101217.09;;;5.65;62.15
28797;BME280;24974;54.444;18.560;2023-12-28T00:26:12;101219.31;;;5.73;61.52
28797;BME280;24974;54.444;18.560;2023-12-28T00:28:45;101210.78;;;5.59;61.53
28797;BME280;24974;54.444;18.560;2023-12-28T00:31:16;101205.72;;;4.72;63.72
28797;BME280;24974;54.444;18.560;2023-12-28T00:33:48;101187.50;;;5.89;61.27
28797;BME280;24974;54.444;18.560;2023-12-28T00:36:20;101186.50;;;5.58;61.65
28797;BME280;24974;54.444;18.560;2023-12-28T00:38:52;101181.34;;;5.19;62.77
28797;BME280;24974;54.444;18.560;2023-12-28T00:41:23;101189.50;;;5.14;62.96
28797;BME280;24974;54.444;18.560;2023-12-28T00:43:54;101197.84;;;5.40;62.81
28797;BME280;24974;54.444;18.560;2023-12-28T00:46:25;101199.19;;;5.37;62.71
28797;BME280;24974;54.444;18.560;2023-12-28T00:48:56;101207.78;;;4.33;65.73
28797;BME280;24974;54.444;18.560;2023-12-28T00:51:27;101199.03;;;4.53;65.18
28797;BME280;24974;54.444;18.560;2023-12-28T00:53:58;101197.41;;;4.57;65.71
28797;BME280;24974;54.444;18.560;2023-12-28T00:56:29;101201.47;;;4.54;65.27
28797;BME280;24974;54.444;18.560;2023-12-28T00:58:59;101200.69;;;5.18;62.95
28797;BME280;24974;54.444;18.560;2023-12-28T01:01:33;101180.88;;;4.90;64.54
28797;BME280;24974;54.444;18.560;2023-12-28T01:04:04;101171.81;;;4.85;64.80
28797;BME280;24974;54.444;18.560;2023-12-28T01:06:34;101168.88;;;4.91;65.18
28797;BME280;24974;54.444;18.560;2023-12-28T01:09:06;101160.31;;;3.97;67.36
28797;BME280;24974;54.444;18.560;2023-12-28T01:11:37;101158.81;;;4.60;65.36
28797;BME280;24974;54.444;18.560;2023-12-28T01:14:08;101165.63;;;4.62;64.98
28797;BME280;24974;54.444;18.560;2023-12-28T01:16:39;101171.03;;;4.30;66.24
28797;BME280;24974;54.444;18.560;2023-12-28T01:19:10;101169.69;;;4.33;66.15
28797;BME280;24974;54.444;18.560;2023-12-28T01:21:45;101174.06;;;4.34;66.51
28797;BME280;24974;54.444;18.560;2023-12-28T01:24:18;101158.66;;;4.44;65.58
28797;BME280;24974;54.444;18.560;2023-12-28T01:26:49;101161.06;;;4.41;66.49
28797;BME280;24974;54.444;18.560;2023-12-28T01:29:20;101142.53;;;4.38;66.37
28797;BME280;24974;54.444;18.560;2023-12-28T01:31:52;101129.75;;;4.38;65.90
28797;BME280;24974;54.444;18.560;2023-12-28T01:34:22;101129.97;;;4.96;65.30
28797;BME280;24974;54.444;18.560;2023-12-28T01:36:54;101118.69;;;4.18;67.68
28797;BME280;24974;54.444;18.560;2023-12-28T01:39:25;101114.16;;;4.61;66.23
28797;BME280;24974;54.444;18.560;2023-12-28T01:41:56;101109.53;;;4.29;66.64
28797;BME280;24974;54.444;18.560;2023-12-28T01:44:27;101103.19;;;3.97;67.88
28797;BME280;24974;54.444;18.560;2023-12-28T01:46:58;101099.88;;;3.68;69.44
28797;BME280;24974;54.444;18.560;2023-12-28T01:49:30;101070.84;;;3.95;68.64
28797;BME280;24974;54.444;18.560;2023-12-28T01:52:02;101064.94;;;4.67;65.78
28797;BME280;24974;54.444;18.560;2023-12-28T01:54:34;101051.84;;;4.64;66.17
28797;BME280;24974;54.444;18.560;2023-12-28T01:57:05;101058.97;;;4.33;66.89
28797;BME280;24974;54.444;18.560;2023-12-28T01:59:37;101061.31;;;4.57;66.45
28797;BME280;24974;54.444;18.560;2023-12-28T02:02:08;101062.78;;;4.05;67.71
28797;BME280;24974;54.444;18.560;2023-12-28T02:04:39;101052.75;;;5.17;65.45
28797;BME280;24974;54.444;18.560;2023-12-28T02:07:10;101035.31;;;4.34;67.32
28797;BME280;24974;54.444;18.560;2023-12-28T02:09:42;101038.59;;;4.09;68.16
28797;BME280;24974;54.444;18.560;2023-12-28T02:12:13;101023.25;;;3.98;68.38
28797;BME280;24974;54.444;18.560;2023-12-28T02:14:44;101000.59;;;4.56;65.84
28797;BME280;24974;54.444;18.560;2023-12-28T02:17:22;101000.38;;;4.63;66.14
28797;BME280;24974;54.444;18.560;2023-12-28T02:19:55;100997.16;;;4.29;67.52
28797;BME280;24974;54.444;18.560;2023-12-28T02:22:27;100996.22;;;4.13;67.53
28797;BME280;24974;54.444;18.560;2023-12-28T02:25:09;100981.59;;;3.92;68.35
28797;BME280;24974;54.444;18.560;2023-12-28T02:27:46;100965.75;;;4.53;66.43
28797;BME280;24974;54.444;18.560;2023-12-28T02:30:21;100963.56;;;4.13;67.82
28797;BME280;24974;54.444;18.560;2023-12-28T02:38:29;100931.50;;;4.57;67.52
28797;BME280;24974;54.444;18.560;2023-12-28T02:41:01;100925.53;;;4.18;68.86
28797;BME280;24974;54.444;18.560;2023-12-28T02:43:34;100927.94;;;3.82;69.98
28797;BME280;24974;54.444;18.560;2023-12-28T02:46:05;100913.53;;;3.82;70.27
28797;BME280;24974;54.444;18.560;2023-12-28T02:48:36;100930.91;;;3.49;71.42
28797;BME280;24974;54.444;18.560;2023-12-28T02:51:08;100924.22;;;4.26;69.28
28797;BME280;24974;54.444;18.560;2023-12-28T02:53:38;100926.97;;;4.31;68.40
28797;BME280;24974;54.444;18.560;2023-12-28T02:56:09;100909.81;;;4.25;68.66
28797;BME280;24974;54.444;18.560;2023-12-28T02:58:40;100907.00;;;4.57;67.36
28797;BME280;24974;54.444;18.560;2023-12-28T03:01:11;100913.31;;;4.20;69.11
28797;BME280;24974;54.444;18.560;2023-12-28T03:03:42;100895.47;;;3.98;70.19
28797;BME280;24974;54.444;18.560;2023-12-28T03:06:13;100906.25;;;4.72;67.77
28797;BME280;24974;54.444;18.560;2023-12-28T03:08:43;100885.28;;;4.20;68.75
28797;BME280;24974;54.444;18.560;2023-12-28T03:11:16;100877.66;;;3.80;70.44
28797;BME280;24974;54.444;18.560;2023-12-28T03:13:47;100880.06;;;3.76;70.63
28797;BME280;24974;54.444;18.560;2023-12-28T03:16:18;100880.44;;;3.90;70.10
28797;BME280;24974;54.444;18.560;2023-12-28T03:18:49;100876.75;;;4.54;67.80
28797;BME280;24974;54.444;18.560;2023-12-28T03:21:20;100873.09;;;4.85;67.21
28797;BME280;24974;54.444;18.560;2023-12-28T03:23:51;100864.69;;;4.97;66.90
28797;BME280;24974;54.444;18.560;2023-12-28T03:26:23;100864.97;;;4.38;68.10
28797;BME280;24974;54.444;18.560;2023-12-28T03:28:54;100859.88;;;4.57;67.35
28797;BME280;24974;54.444;18.560;2023-12-28T03:31:25;100861.28;;;4.64;67.76
28797;BME280;24974;54.444;18.560;2023-12-28T03:33:56;100841.94;;;4.08;68.96
28797;BME280;24974;54.444;18.560;2023-12-28T03:36:27;100834.88;;;4.65;67.70
28797;BME280;24974;54.444;18.560;2023-12-28T03:38:57;100828.19;;;3.83;70.67
28797;BME280;24974;54.444;18.560;2023-12-28T03:41:28;100817.22;;;4.72;67.54
28797;BME280;24974;54.444;18.560;2023-12-28T03:43:59;100804.91;;;4.49;68.27
28797;BME280;24974;54.444;18.560;2023-12-28T03:46:31;100794.25;;;4.43;68.66
28797;BME280;24974;54.444;18.560;2023-12-28T03:49:02;100793.06;;;4.18;69.77
28797;BME280;24974;54.444;18.560;2023-12-28T03:51:33;100789.47;;;4.08;69.99
28797;BME280;24974;54.444;18.560;2023-12-28T03:54:04;100784.56;;;4.67;67.99
28797;BME280;24974;54.444;18.560;2023-12-28T03:56:35;100770.94;;;4.72;68.49
28797;BME280;24974;54.444;18.560;2023-12-28T03:59:07;100750.13;;;4.26;69.19
28797;BME280;24974;54.444;18.560;2023-12-28T04:01:38;100743.72;;;4.72;68.39
28797;BME280;24974;54.444;18.560;2023-12-28T04:04:09;100730.09;;;4.62;68.30
28797;BME280;24974;54.444;18.560;2023-12-28T04:06:40;100708.22;;;4.32;69.58
28797;BME280;24974;54.444;18.560;2023-12-28T04:09:13;100707.94;;;4.23;69.54
28797;BME280;24974;54.444;18.560;2023-12-28T04:11:44;100699.78;;;4.18;70.37
28797;BME280;24974;54.444;18.560;2023-12-28T04:14:16;100690.25;;;4.20;70.01
28797;BME280;24974;54.444;18.560;2023-12-28T04:16:47;100679.63;;;4.19;70.27
28797;BME280;24974;54.444;18.560;2023-12-28T04:19:17;100675.78;;;4.05;70.84
28797;BME280;24974;54.444;18.560;2023-12-28T04:21:48;100677.31;;;5.29;66.56
28797;BME280;24974;54.444;18.560;2023-12-28T04:24:19;100667.72;;;4.40;68.67
28797;BME280;24974;54.444;18.560;2023-12-28T04:26:50;100655.47;;;4.38;68.81
28797;BME280;24974;54.444;18.560;2023-12-28T04:29:21;100653.06;;;4.52;68.96
28797;BME280;24974;54.444;18.560;2023-12-28T04:31:52;100639.97;;;4.48;68.88
28797;BME280;24974;54.444;18.560;2023-12-28T04:34:24;100630.44;;;4.46;68.93
28797;BME280;24974;54.444;18.560;2023-12-28T04:36:55;100618.97;;;4.13;70.13
28797;BME280;24974;54.444;18.560;2023-12-28T04:39:26;100614.38;;;4.29;70.00
28797;BME280;24974;54.444;18.560;2023-12-28T04:41:57;100610.31;;;4.47;68.98
28797;BME280;24974;54.444;18.560;2023-12-28T04:44:28;100598.78;;;3.99;70.26
28797;BME280;24974;54.444;18.560;2023-12-28T04:46:59;100590.63;;;3.99;70.40
28797;BME280;24974;54.444;18.560;2023-12-28T04:49:30;100590.53;;;3.69;70.57
28797;BME280;24974;54.444;18.560;2023-12-28T04:52:01;100586.31;;;4.08;70.40
28797;BME280;24974;54.444;18.560;2023-12-28T04:54:32;100585.25;;;4.40;68.48
28797;BME280;24974;54.444;18.560;2023-12-28T04:57:06;100578.97;;;4.24;69.76
28797;BME280;24974;54.444;18.560;2023-12-28T04:59:39;100579.47;;;4.01;70.04
28797;BME280;24974;54.444;18.560;2023-12-28T05:02:11;100563.78;;;4.38;68.55
28797;BME280;24974;54.444;18.560;2023-12-28T05:04:41;100552.31;;;3.96;69.99
28797;BME280;24974;54.444;18.560;2023-12-28T05:07:12;100537.59;;;3.86;70.79
28797;BME280;24974;54.444;18.560;2023-12-28T05:09:43;100514.75;;;3.92;70.14
28797;BME280;24974;54.444;18.560;2023-12-28T05:12:14;100502.00;;;4.08;69.45
28797;BME280;24974;54.444;18.560;2023-12-28T05:14:45;100497.66;;;4.22;69.39
28797;BME280;24974;54.444;18.560;2023-12-28T05:17:16;100489.47;;;3.82;69.98
28797;BME280;24974;54.444;18.560;2023-12-28T05:19:47;100475.38;;;4.26;68.83
28797;BME280;24974;54.444;18.560;2023-12-28T05:22:18;100466.91;;;4.32;68.39
28797;BME280;24974;54.444;18.560;2023-12-28T05:24:49;100441.63;;;4.42;68.14
28797;BME280;24974;54.444;18.560;2023-12-28T05:27:19;100444.06;;;4.23;68.54
28797;BME280;24974;54.444;18.560;2023-12-28T05:29:50;100463.66;;;4.15;68.93
28797;BME280;24974;54.444;18.560;2023-12-28T05:32:21;100495.75;;;4.48;67.48
28797;BME280;24974;54.444;18.560;2023-12-28T05:34:52;100497.34;;;3.83;69.50
28797;BME280;24974;54.444;18.560;2023-12-28T05:37:23;100491.94;;;4.55;67.16
28797;BME280;24974;54.444;18.560;2023-12-28T05:39:53;100489.59;;;5.13;65.79
28797;BME280;24974;54.444;18.560;2023-12-28T05:42:24;100504.19;;;4.37;67.08
28797;BME280;24974;54.444;18.560;2023-12-28T05:44:55;100500.34;;;3.92;68.24
28797;BME280;24974;54.444;18.560;2023-12-28T05:47:26;100485.31;;;4.96;66.15
28797;BME280;24974;54.444;18.560;2023-12-28T05:49:57;100480.22;;;3.83;68.50
28797;BME280;24974;54.444;18.560;2023-12-28T05:52:28;100503.78;;;5.04;65.61
28797;BME280;24974;54.444;18.560;2023-12-28T05:54:59;100503.00;;;4.99;65.77
28797;BME280;24974;54.444;18.560;2023-12-28T05:57:30;100498.34;;;5.15;65.02
28797;BME280;24974;54.444;18.560;2023-12-28T06:00:01;100488.50;;;5.78;63.09
28797;BME280;24974;54.444;18.560;2023-12-28T06:02:43;100487.28;;;4.75;64.80
28797;BME280;24974;54.444;18.560;2023-12-28T06:05:13;100499.47;;;4.98;64.47
28797;BME280;24974;54.444;18.560;2023-12-28T06:07:44;100504.16;;;5.52;64.04
28797;BME280;24974;54.444;18.560;2023-12-28T06:10:15;100482.13;;;4.69;65.85
28797;BME280;24974;54.444;18.560;2023-12-28T06:12:46;100477.31;;;5.25;64.88
28797;BME280;24974;54.444;18.560;2023-12-28T06:15:17;100468.56;;;5.28;64.12
28797;BME280;24974;54.444;18.560;2023-12-28T06:17:48;100459.09;;;5.70;62.56
28797;BME280;24974;54.444;18.560;2023-12-28T06:20:19;100450.06;;;5.30;63.77
28797;BME280;24974;54.444;18.560;2023-12-28T06:22:50;100448.94;;;5.76;62.92
28797;BME280;24974;54.444;18.560;2023-12-28T06:25:21;100447.63;;;6.12;61.83
28797;BME280;24974;54.444;18.560;2023-12-28T06:27:51;100430.00;;;5.55;62.79
28797;BME280;24974;54.444;18.560;2023-12-28T06:30:22;100429.16;;;5.60;62.56
28797;BME280;24974;54.444;18.560;2023-12-28T06:32:53;100419.19;;;6.48;61.35
28797;BME280;24974;54.444;18.560;2023-12-28T06:35:24;100426.00;;;6.21;61.54
28797;BME280;24974;54.444;18.560;2023-12-28T06:37:55;100421.69;;;6.44;60.75
28797;BME280;24974;54.444;18.560;2023-12-28T06:40:25;100408.56;;;6.70;59.71
28797;BME280;24974;54.444;18.560;2023-12-28T06:42:56;100417.69;;;6.31;60.96
28797;BME280;24974;54.444;18.560;2023-12-28T06:45:27;100403.78;;;6.04;60.90
28797;BME280;24974;54.444;18.560;2023-12-28T06:47:58;100417.38;;;5.70;62.04
28797;BME280;24974;54.444;18.560;2023-12-28T06:50:29;100401.03;;;6.33;60.89
28797;BME280;24974;54.444;18.560;2023-12-28T06:53:00;100408.25;;;6.48;60.77
28797;BME280;24974;54.444;18.560;2023-12-28T06:55:31;100440.50;;;6.45;60.20
28797;BME280;24974;54.444;18.560;2023-12-28T06:58:02;100433.16;;;6.70;59.80
28797;BME280;24974;54.444;18.560;2023-12-28T07:00:33;100446.28;;;6.39;60.68
28797;BME280;24974;54.444;18.560;2023-12-28T07:03:05;100448.34;;;6.52;60.08
28797;BME280;24974;54.444;18.560;2023-12-28T07:05:36;100447.41;;;5.65;62.88
28797;BME280;24974;54.444;18.560;2023-12-28T07:08:07;100437.00;;;6.11;61.46
28797;BME280;24974;54.444;18.560;2023-12-28T07:10:37;100431.56;;;5.67;62.53
28797;BME280;24974;54.444;18.560;2023-12-28T07:13:08;100441.88;;;5.30;63.60
28797;BME280;24974;54.444;18.560;2023-12-28T07:15:39;100454.25;;;6.35;61.79
28797;BME280;24974;54.444;18.560;2023-12-28T07:18:10;100424.72;;;5.69;63.75
28797;BME280;24974;54.444;18.560;2023-12-28T07:20:41;100449.13;;;6.58;62.20
28797;BME280;24974;54.444;18.560;2023-12-28T07:23:12;100466.69;;;6.76;61.33
28797;BME280;24974;54.444;18.560;2023-12-28T07:25:43;100462.03;;;6.47;62.05
28797;BME280;24974;54.444;18.560;2023-12-28T07:28:14;100455.59;;;7.15;60.25
28797;BME280;24974;54.444;18.560;2023-12-28T07:30:45;100474.41;;;6.39;62.18
28797;BME280;24974;54.444;18.560;2023-12-28T07:33:16;100474.72;;;6.33;63.23
28797;BME280;24974;54.444;18.560;2023-12-28T07:35:47;100481.16;;;6.47;62.57
28797;BME280;24974;54.444;18.560;2023-12-28T07:38:18;100466.53;;;6.33;62.40
28797;BME280;24974;54.444;18.560;2023-12-28T07:40:48;100480.91;;;6.72;61.91
28797;BME280;24974;54.444;18.560;2023-12-28T07:43:20;100475.16;;;6.45;62.25
28797;BME280;24974;54.444;18.560;2023-12-28T07:45:50;100475.34;;;6.83;61.47
28797;BME280;24974;54.444;18.560;2023-12-28T07:48:21;100465.69;;;6.66;61.97
28797;BME280;24974;54.444;18.560;2023-12-28T07:50:52;100450.97;;;7.10;60.75
28797;BME280;24974;54.444;18.560;2023-12-28T07:53:23;100453.41;;;6.64;62.95
28797;BME280;24974;54.444;18.560;2023-12-28T07:55:54;100452.03;;;6.66;62.96
28797;BME280;24974;54.444;18.560;2023-12-28T07:58:26;100461.53;;;6.98;61.55
28797;BME280;24974;54.444;18.560;2023-12-28T08:00:57;100443.13;;;6.80;62.50
28797;BME280;24974;54.444;18.560;2023-12-28T08:03:27;100443.66;;;6.29;64.16
28797;BME280;24974;54.444;18.560;2023-12-28T08:05:58;100436.00;;;6.84;62.82
28797;BME280;24974;54.444;18.560;2023-12-28T08:08:29;100442.16;;;6.94;62.68
28797;BME280;24974;54.444;18.560;2023-12-28T08:11:00;100449.88;;;7.11;62.15
28797;BME280;24974;54.444;18.560;2023-12-28T08:13:31;100455.97;;;6.79;63.08
28797;BME280;24974;54.444;18.560;2023-12-28T08:16:01;100453.84;;;6.76;63.71
28797;BME280;24974;54.444;18.560;2023-12-28T08:18:33;100463.00;;;7.33;63.25
28797;BME280;24974;54.444;18.560;2023-12-28T08:21:04;100450.00;;;7.01;63.95
28797;BME280;24974;54.444;18.560;2023-12-28T08:23:35;100459.78;;;7.50;63.00
28797;BME280;24974;54.444;18.560;2023-12-28T08:26:05;100459.34;;;7.80;62.61
28797;BME280;24974;54.444;18.560;2023-12-28T08:28:37;100464.81;;;6.95;64.79
28797;BME280;24974;54.444;18.560;2023-12-28T08:31:08;100473.75;;;7.67;63.56
28797;BME280;24974;54.444;18.560;2023-12-28T08:33:39;100474.34;;;7.64;63.82
28797;BME280;24974;54.444;18.560;2023-12-28T08:36:10;100455.25;;;7.59;64.26
28797;BME280;24974;54.444;18.560;2023-12-28T08:38:42;100462.50;;;8.06;62.32
28797;BME280;24974;54.444;18.560;2023-12-28T08:41:20;100463.56;;;7.54;64.48
28797;BME280;24974;54.444;18.560;2023-12-28T08:43:50;100473.88;;;7.76;63.82
28797;BME280;24974;54.444;18.560;2023-12-28T08:46:22;100476.59;;;8.13;63.18
28797;BME280;24974;54.444;18.560;2023-12-28T08:48:55;100473.78;;;8.37;62.72
28797;BME280;24974;54.444;18.560;2023-12-28T08:51:26;100478.78;;;8.49;62.11
28797;BME280;24974;54.444;18.560;2023-12-28T08:53:56;100479.84;;;8.34;62.56
28797;BME280;24974;54.444;18.560;2023-12-28T08:56:27;100479.66;;;8.12;63.35
28797;BME280;24974;54.444;18.560;2023-12-28T08:58:58;100499.44;;;8.23;64.17
28797;BME280;24974;54.444;18.560;2023-12-28T09:01:29;100483.06;;;8.04;64.83
28797;BME280;24974;54.444;18.560;2023-12-28T09:04:02;100474.06;;;8.17;64.93
28797;BME280;24974;54.444;18.560;2023-12-28T09:06:33;100484.44;;;8.39;64.63
28797;BME280;24974;54.444;18.560;2023-12-28T09:09:04;100482.69;;;7.92;65.76
28797;BME280;24974;54.444;18.560;2023-12-28T09:11:35;100474.19;;;8.12;66.52
28797;BME280;24974;54.444;18.560;2023-12-28T09:14:06;100473.28;;;8.49;64.69
28797;BME280;24974;54.444;18.560;2023-12-28T09:16:37;100467.53;;;8.32;65.63
28797;BME280;24974;54.444;18.560;2023-12-28T09:19:09;100474.41;;;8.48;65.25
28797;BME280;24974;54.444;18.560;2023-12-28T09:21:40;100472.94;;;9.38;62.61
28797;BME280;24974;54.444;18.560;2023-12-28T09:24:11;100483.59;;;7.87;66.34
28797;BME280;24974;54.444;18.560;2023-12-28T09:26:42;100465.34;;;8.80;64.68
28797;BME280;24974;54.444;18.560;2023-12-28T09:29:13;100480.66;;;8.81;64.36
28797;BME280;24974;54.444;18.560;2023-12-28T09:31:45;100481.72;;;8.01;67.81
28797;BME280;24974;54.444;18.560;2023-12-28T09:34:16;100484.44;;;8.39;66.27
28797;BME280;24974;54.444;18.560;2023-12-28T09:36:47;100483.91;;;9.38;62.91
28797;BME280;24974;54.444;18.560;2023-12-28T09:39:18;100492.44;;;9.37;63.63
28797;BME280;24974;54.444;18.560;2023-12-28T09:41:55;100490.72;;;9.55;63.03
28797;BME280;24974;54.444;18.560;2023-12-28T09:44:30;100478.22;;;8.80;64.85
28797;BME280;24974;54.444;18.560;2023-12-28T09:47:02;100471.72;;;9.44;63.73
28797;BME280;24974;54.444;18.560;2023-12-28T09:49:33;100462.81;;;9.75;62.61
28797;BME280;24974;54.444;18.560;2023-12-28T09:52:04;100465.53;;;8.05;67.17
28797;BME280;24974;54.444;18.560;2023-12-28T09:54:36;100460.13;;;8.19;66.74
28797;BME280;24974;54.444;18.560;2023-12-28T09:57:07;100442.66;;;8.47;66.77
28797;BME280;24974;54.444;18.560;2023-12-28T09:59:40;100441.53;;;8.48;65.88
28797;BME280;24974;54.444;18.560;2023-12-28T10:02:11;100437.00;;;8.57;66.50
28797;BME280;24974;54.444;18.560;2023-12-28T10:04:42;100443.69;;;8.65;66.36
28797;BME280;24974;54.444;18.560;2023-12-28T10:07:13;100447.19;;;8.05;67.86
28797;BME280;24974;54.444;18.560;2023-12-28T10:09:44;100450.31;;;9.05;65.03
28797;BME280;24974;54.444;18.560;2023-12-28T10:12:15;100450.91;;;9.30;64.42
28797;BME280;24974;54.444;18.560;2023-12-28T10:14:45;100448.53;;;10.23;61.63
28797;BME280;24974;54.444;18.560;2023-12-28T10:17:16;100453.34;;;9.81;62.55
28797;BME280;24974;54.444;18.560;2023-12-28T10:19:47;100452.00;;;9.92;62.29
28797;BME280;24974;54.444;18.560;2023-12-28T10:22:19;100444.28;;;9.58;63.58
28797;BME280;24974;54.444;18.560;2023-12-28T10:24:50;100437.22;;;9.79;63.19
28797;BME280;24974;54.444;18.560;2023-12-28T10:27:21;100439.44;;;9.28;64.63
28797;BME280;24974;54.444;18.560;2023-12-28T10:29:56;100445.09;;;9.59;63.69
28797;BME280;24974;54.444;18.560;2023-12-28T10:32:27;100445.84;;;10.31;61.55
28797;BME280;24974;54.444;18.560;2023-12-28T10:34:57;100453.91;;;10.90;60.43
28797;BME280;24974;54.444;18.560;2023-12-28T10:37:31;100441.56;;;10.48;60.64
28797;BME280;24974;54.444;18.560;2023-12-28T10:40:05;100451.94;;;10.82;60.16
28797;BME280;24974;54.444;18.560;2023-12-28T10:42:52;100442.25;;;10.08;62.61
28797;BME280;24974;54.444;18.560;2023-12-28T10:45:25;100455.81;;;10.81;60.15
28797;BME280;24974;54.444;18.560;2023-12-28T10:48:09;100448.28;;;10.95;59.78
28797;BME280;24974;54.444;18.560;2023-12-28T10:50:49;100448.34;;;11.12;59.59
28797;BME280;24974;54.444;18.560;2023-12-28T10:53:37;100428.28;;;10.41;62.07
28797;BME280;24974;54.444;18.560;2023-12-28T11:01:40;100459.94;;;9.30;64.71
28797;BME280;24974;54.444;18.560;2023-12-28T11:07:01;100454.69;;;10.82;60.36
28797;BME280;24974;54.444;18.560;2023-12-28T11:09:34;100451.94;;;9.20;65.85
28797;BME280;24974;54.444;18.560;2023-12-28T11:12:07;100454.41;;;9.71;64.07
28797;BME280;24974;54.444;18.560;2023-12-28T11:14:40;100451.44;;;10.49;62.11
28797;BME280;24974;54.444;18.560;2023-12-28T11:17:11;100453.88;;;10.50;61.80
28797;BME280;24974;54.444;18.560;2023-12-28T11:19:45;100440.78;;;8.61;67.77
28797;BME280;24974;54.444;18.560;2023-12-28T11:22:17;100440.75;;;10.02;63.78
28797;BME280;24974;54.444;18.560;2023-12-28T11:24:48;100435.75;;;10.49;62.09
28797;BME280;24974;54.444;18.560;2023-12-28T11:27:20;100427.53;;;10.89;61.36
28797;BME280;24974;54.444;18.560;2023-12-28T11:29:51;100423.31;;;10.21;62.92
28797;BME280;24974;54.444;18.560;2023-12-28T11:32:22;100422.16;;;10.75;60.99
28797;BME280;24974;54.444;18.560;2023-12-28T11:34:57;100430.25;;;11.29;60.21
28797;BME280;24974;54.444;18.560;2023-12-28T11:37:32;100419.16;;;10.54;62.52
28797;BME280;24974;54.444;18.560;2023-12-28T11:40:13;100426.22;;;11.26;59.60
28797;BME280;24974;54.444;18.560;2023-12-28T11:42:53;100422.47;;;10.74;62.11
28797;BME280;24974;54.444;18.560;2023-12-28T11:45:24;100421.13;;;11.02;60.29
28797;BME280;24974;54.444;18.560;2023-12-28T11:48:02;100426.28;;;10.95;60.96
28797;BME280;24974;54.444;18.560;2023-12-28T11:50:33;100425.22;;;11.22;59.82
28797;BME280;24974;54.444;18.560;2023-12-28T11:53:04;100426.44;;;11.64;58.80
28797;BME280;24974;54.444;18.560;2023-12-28T11:55:35;100403.28;;;12.00;58.16
28797;BME280;24974;54.444;18.560;2023-12-28T11:58:06;100405.56;;;12.07;56.82
28797;BME280;24974;54.444;18.560;2023-12-28T12:00:37;100397.31;;;11.89;58.37
28797;BME280;24974;54.444;18.560;2023-12-28T12:03:10;100394.66;;;12.19;57.33
28797;BME280;24974;54.444;18.560;2023-12-28T12:05:41;100401.13;;;11.36;59.41
28797;BME280;24974;54.444;18.560;2023-12-28T12:08:12;100395.59;;;12.40;56.45
28797;BME280;24974;54.444;18.560;2023-12-28T12:10:44;100392.59;;;11.98;57.66
28797;BME280;24974;54.444;18.560;2023-12-28T12:13:15;100387.28;;;14.66;51.92
28797;BME280;24974;54.444;18.560;2023-12-28T12:15:50;100378.59;;;13.35;53.10
28797;BME280;24974;54.444;18.560;2023-12-28T12:18:22;100382.94;;;12.39;56.46
28797;BME280;24974;54.444;18.560;2023-12-28T12:20:53;100399.25;;;13.00;54.89
28797;BME280;24974;54.444;18.560;2023-12-28T12:23:24;100395.44;;;12.37;56.18
28797;BME280;24974;54.444;18.560;2023-12-28T12:25:55;100398.16;;;13.22;54.91
28797;BME280;24974;54.444;18.560;2023-12-28T12:28:26;100406.44;;;13.22;53.97
28797;BME280;24974;54.444;18.560;2023-12-28T12:30:58;100397.13;;;12.12;56.83
28797;BME280;24974;54.444;18.560;2023-12-28T12:33:31;100400.22;;;12.57;55.87
28797;BME280;24974;54.444;18.560;2023-12-28T12:36:02;100399.94;;;12.88;55.31
28797;BME280;24974;54.444;18.560;2023-12-28T12:38:34;100398.00;;;12.88;54.92
28797;BME280;24974;54.444;18.560;2023-12-28T12:41:05;100390.09;;;13.37;53.08
28797;BME280;24974;54.444;18.560;2023-12-28T12:43:35;100375.16;;;13.38;53.72
28797;BME280;24974;54.444;18.560;2023-12-28T12:46:06;100367.38;;;12.35;56.31
28797;BME280;24974;54.444;18.560;2023-12-28T12:48:37;100372.41;;;13.09;54.33
28797;BME280;24974;54.444;18.560;2023-12-28T12:51:08;100378.81;;;13.01;54.10
28797;BME280;24974;54.444;18.560;2023-12-28T12:53:39;100377.97;;;13.30;54.48
28797;BME280;24974;54.444;18.560;2023-12-28T12:56:11;100380.81;;;14.17;51.52
28797;BME280;24974;54.444;18.560;2023-12-28T12:58:42;100375.72;;;13.32;53.34
28797;BME280;24974;54.444;18.560;2023-12-28T13:01:13;100368.38;;;13.57;52.67
28797;BME280;24974;54.444;18.560;2023-12-28T13:03:45;100367.69;;;14.14;51.07
28797;BME280;24974;54.444;18.560;2023-12-28T13:06:17;100370.69;;;14.66;49.75
28797;BME280;24974;54.444;18.560;2023-12-28T13:08:48;100364.47;;;14.12;51.16
28797;BME280;24974;54.444;18.560;2023-12-28T13:11:19;100361.16;;;12.08;56.66
28797;BME280;24974;54.444;18.560;2023-12-28T13:13:55;100348.28;;;12.29;56.07
28797;BME280;24974;54.444;18.560;2023-12-28T13:16:26;100361.81;;;12.90;54.81
28797;BME280;24974;54.444;18.560;2023-12-28T13:18:57;100353.16;;;13.51;53.82
28797;BME280;24974;54.444;18.560;2023-12-28T13:21:28;100353.78;;;13.56;52.08
28797;BME280;24974;54.444;18.560;2023-12-28T13:23:59;100348.56;;;12.45;55.52